Time;durP1;ratioP1;P1;durP2;ratioP2;P2;SDS_P1;SDS_P2;PMS_P1;PMS_P2;Temp;Humidity;BMP_temperature;BMP_pressure;BME280_temperature;BME280_humidity;BME280_pressure;Samples;Min_cycle;Max_cycle;Signal;HPM_P1;HPM_P2
2024/01/08 00:01:50;;;;;;;3.70;3.40;;;-1.90;99.90;;;;;;485196;245;27982;-65
2024/01/08 00:03:51;;;;;;;3.83;3.33;;;-1.90;99.90;;;;;;485066;245;27901;-65
2024/01/08 00:05:52;;;;;;;3.67;3.37;;;-1.80;99.90;;;;;;485064;245;27487;-65
2024/01/08 00:07:53;;;;;;;3.42;3.08;;;-1.90;99.90;;;;;;485212;245;27489;-65
2024/01/08 00:09:55;;;;;;;3.40;3.20;;;-1.90;99.90;;;;;;485197;245;27494;-66
2024/01/08 00:11:56;;;;;;;5.90;3.50;;;-1.90;99.90;;;;;;485197;245;27406;-65
2024/01/08 00:13:57;;;;;;;3.78;3.47;;;-1.90;99.90;;;;;;485155;245;27411;-65
2024/01/08 00:15:58;;;;;;;3.33;3.12;;;-1.90;99.90;;;;;;485193;245;27406;-65
2024/01/08 00:18:00;;;;;;;4.43;3.28;;;-1.90;99.90;;;;;;485194;245;27499;-65
2024/01/08 00:20:01;;;;;;;2.67;2.47;;;-1.90;99.90;;;;;;485205;245;27879;-65
2024/01/08 00:22:02;;;;;;;3.10;2.90;;;-1.90;99.90;;;;;;485174;245;27879;-65
2024/01/08 00:24:03;;;;;;;3.58;3.28;;;-1.90;99.90;;;;;;485181;245;28986;-66
2024/01/08 00:26:05;;;;;;;4.03;3.62;;;-1.90;99.90;;;;;;485199;245;29018;-64
2024/01/08 00:28:06;;;;;;;3.72;3.03;;;-1.90;99.90;;;;;;485211;245;27410;-65
2024/01/08 00:30:07;;;;;;;3.67;3.10;;;-1.90;99.90;;;;;;485098;245;27504;-66
2024/01/08 00:32:08;;;;;;;3.22;3.03;;;-1.90;99.90;;;;;;485201;245;27408;-65
2024/01/08 00:34:10;;;;;;;3.10;2.90;;;-1.90;99.90;;;;;;485180;245;27418;-65
2024/01/08 00:36:11;;;;;;;3.08;2.87;;;-1.90;99.90;;;;;;485215;245;27513;-66
2024/01/08 00:38:12;;;;;;;4.20;3.17;;;-1.90;99.90;;;;;;485154;245;27399;-64
2024/01/08 00:40:13;;;;;;;2.78;2.53;;;-1.90;99.90;;;;;;485203;245;27917;-65
2024/01/08 00:42:15;;;;;;;2.90;2.60;;;-1.90;99.90;;;;;;485183;245;27893;-64
2024/01/08 00:44:16;;;;;;;3.53;3.33;;;-1.90;99.90;;;;;;485173;245;28950;-64
2024/01/08 00:46:17;;;;;;;3.30;3.00;;;-1.90;99.90;;;;;;485203;245;27494;-65
2024/01/08 00:48:18;;;;;;;3.28;2.97;;;-1.90;99.90;;;;;;485209;245;27414;-65
2024/01/08 00:50:20;;;;;;;3.00;2.80;;;-1.90;99.90;;;;;;485203;245;27426;-65
2024/01/08 00:52:21;;;;;;;3.28;2.78;;;-1.90;99.90;;;;;;485190;245;27406;-65
2024/01/08 00:54:22;;;;;;;2.65;2.45;;;-1.90;99.90;;;;;;485150;245;27406;-65
2024/01/08 00:56:23;;;;;;;3.58;3.28;;;-1.80;99.90;;;;;;485158;245;27426;-65
2024/01/08 00:58:25;;;;;;;3.30;3.00;;;-1.90;99.90;;;;;;485204;242;27414;-64
2024/01/08 01:00:26;;;;;;;3.85;3.12;;;-1.90;99.90;;;;;;485064;245;27906;-65
2024/01/08 01:02:27;;;;;;;2.95;2.50;;;-1.90;99.90;;;;;;485182;245;27960;-66
2024/01/08 01:04:28;;;;;;;3.00;2.80;;;-1.80;99.90;;;;;;485171;245;27971;-65
2024/01/08 01:06:30;;;;;;;2.92;2.72;;;-1.80;99.90;;;;;;485075;245;27496;-65
2024/01/08 01:08:31;;;;;;;2.95;2.75;;;-1.90;99.90;;;;;;485149;245;27481;-65
2024/01/08 01:10:32;;;;;;;3.35;2.95;;;-1.80;99.90;;;;;;485212;245;27505;-65
2024/01/08 01:12:33;;;;;;;2.70;2.50;;;-1.80;99.90;;;;;;485197;245;27517;-66
2024/01/08 01:14:35;;;;;;;3.80;2.60;;;-1.90;99.90;;;;;;485166;245;27496;-65
2024/01/08 01:16:36;;;;;;;2.87;2.55;;;-1.80;99.90;;;;;;485203;245;27410;-64
2024/01/08 01:18:37;;;;;;;4.65;3.00;;;-1.80;99.90;;;;;;485192;245;27414;-65
2024/01/08 01:20:38;;;;;;;2.90;2.60;;;-1.80;99.90;;;;;;485195;245;27977;-65
2024/01/08 01:22:40;;;;;;;2.87;2.58;;;-1.90;99.90;;;;;;485210;245;27854;-66
2024/01/08 01:24:41;;;;;;;3.25;2.60;;;-1.80;99.90;;;;;;485169;245;27854;-65
2024/01/08 01:26:42;;;;;;;4.03;2.60;;;-1.80;99.90;;;;;;485211;245;27418;-66
2024/01/08 01:28:43;;;;;;;2.60;2.40;;;-1.80;99.90;;;;;;485193;245;27430;-65
2024/01/08 01:30:45;;;;;;;2.92;2.72;;;-1.80;99.90;;;;;;485198;245;27504;-65
2024/01/08 01:32:46;;;;;;;2.40;2.30;;;-1.80;99.90;;;;;;485192;245;27425;-65
2024/01/08 01:34:47;;;;;;;3.33;3.03;;;-1.80;99.90;;;;;;485163;245;27485;-64
2024/01/08 01:36:48;;;;;;;2.40;2.28;;;-1.80;99.90;;;;;;485200;245;27493;-65
2024/01/08 01:38:50;;;;;;;2.50;2.35;;;-1.80;99.90;;;;;;485209;245;27483;-66
2024/01/08 01:40:51;;;;;;;2.85;2.65;;;-1.80;99.90;;;;;;485204;245;27986;-65
2024/01/08 01:42:54;;;;;;;3.87;2.45;;;-1.80;99.90;;;;;;485192;245;27897;-65
2024/01/08 01:44:53;;;;;;;2.83;2.58;;;-1.80;99.90;;;;;;485051;245;29105;-65
2024/01/08 01:46:55;;;;;;;2.55;2.35;;;-1.70;99.90;;;;;;485203;245;27396;-65
2024/01/08 01:48:56;;;;;;;4.70;2.95;;;-1.80;99.90;;;;;;485213;245;27419;-66
2024/01/08 01:50:57;;;;;;;2.65;2.45;;;-1.80;99.90;;;;;;485169;245;27469;-65
2024/01/08 01:52:59;;;;;;;2.47;2.28;;;-1.80;99.90;;;;;;485217;245;27418;-65
2024/01/08 01:55:00;;;;;;;3.25;2.72;;;-1.80;99.90;;;;;;485219;245;27406;-65
2024/01/08 01:57:01;;;;;;;2.70;2.50;;;-1.70;99.90;;;;;;485207;245;27411;-65
2024/01/08 01:59:03;;;;;;;6.18;2.60;;;-1.80;99.90;;;;;;485185;245;27506;-65
2024/01/08 02:01:04;;;;;;;2.80;2.60;;;-1.80;99.90;;;;;;485204;245;27907;-65
2024/01/08 02:03:06;;;;;;;2.50;2.37;;;-1.80;99.90;;;;;;485242;245;27870;-65
2024/01/08 02:05:07;;;;;;;2.85;2.60;;;-1.80;99.90;;;;;;485065;245;28970;-65
2024/01/08 02:07:08;;;;;;;2.40;2.20;;;-1.80;99.90;;;;;;485213;245;27418;-65
2024/01/08 02:09:09;;;;;;;2.20;2.00;;;-1.70;99.90;;;;;;485068;245;27419;-66
2024/01/08 02:11:10;;;;;;;2.35;2.15;;;-1.70;99.90;;;;;;485175;245;27480;-65
2024/01/08 02:13:11;;;;;;;2.78;2.30;;;-1.70;99.90;;;;;;485214;245;27519;-65
2024/01/08 02:15:12;;;;;;;2.70;2.50;;;-1.80;99.90;;;;;;485193;245;27403;-66
2024/01/08 02:17:14;;;;;;;2.42;2.20;;;-1.80;99.90;;;;;;485215;245;27443;-65
2024/01/08 02:19:15;;;;;;;2.70;2.50;;;-1.80;99.90;;;;;;485223;245;27576;-65
2024/01/08 02:21:16;;;;;;;2.72;2.53;;;-1.80;99.90;;;;;;485215;245;27871;-65
2024/01/08 02:23:17;;;;;;;2.40;2.30;;;-1.80;99.90;;;;;;485212;245;27918;-65
2024/01/08 02:25:19;;;;;;;2.30;2.20;;;-1.70;99.90;;;;;;485181;245;27967;-65
2024/01/08 02:27:20;;;;;;;2.83;2.62;;;-1.70;99.90;;;;;;485211;245;27491;-65
2024/01/08 02:29:21;;;;;;;3.00;2.80;;;-1.80;99.90;;;;;;485216;245;27418;-65
2024/01/08 02:31:22;;;;;;;2.35;2.25;;;-1.70;99.90;;;;;;485215;245;27406;-65
2024/01/08 02:33:24;;;;;;;2.50;2.40;;;-1.80;99.90;;;;;;485227;245;27426;-65
2024/01/08 02:35:25;;;;;;;2.83;2.60;;;-1.80;99.90;;;;;;485190;245;27413;-66
2024/01/08 02:37:26;;;;;;;2.45;2.28;;;-1.80;99.90;;;;;;485213;245;27410;-65
2024/01/08 02:39:27;;;;;;;2.70;2.50;;;-1.80;99.90;;;;;;485198;245;27434;-64
2024/01/08 02:41:29;;;;;;;3.70;2.28;;;-1.80;99.90;;;;;;485200;245;27894;-66
2024/01/08 02:43:31;;;;;;;5.15;2.40;;;-1.80;99.90;;;;;;485076;245;27988;-65
2024/01/08 02:45:32;;;;;;;2.28;2.17;;;-1.90;99.90;;;;;;485171;245;27973;-65
2024/01/08 02:47:37;;;;;;;2.12;2.03;;;-1.80;99.90;;;;;;485220;245;27425;-65
2024/01/08 02:49:34;;;;;;;2.33;2.15;;;-1.80;99.90;;;;;;484887;245;27510;-65
2024/01/08 02:51:35;;;;;;;2.67;2.58;;;-1.80;99.90;;;;;;485215;245;27403;-66
2024/01/08 02:53:36;;;;;;;2.58;2.30;;;-1.70;99.90;;;;;;485217;245;27524;-65
2024/01/08 02:55:37;;;;;;;2.60;2.40;;;-1.80;99.90;;;;;;485191;245;27407;-65
2024/01/08 02:57:39;;;;;;;4.40;2.40;;;-1.80;99.90;;;;;;485206;245;27867;-65
2024/01/08 02:59:40;;;;;;;3.62;2.80;;;-1.80;99.90;;;;;;485219;245;27402;-64
2024/01/08 03:01:41;;;;;;;2.50;2.30;;;-1.90;99.90;;;;;;485212;245;27965;-65
2024/01/08 03:03:42;;;;;;;2.70;2.50;;;-1.80;99.90;;;;;;485216;245;27853;-65
2024/01/08 03:05:44;;;;;;;2.40;2.30;;;-1.80;99.90;;;;;;485116;245;29083;-65
2024/01/08 03:07:45;;;;;;;2.50;2.30;;;-1.80;99.90;;;;;;485230;245;27402;-65
2024/01/08 03:09:46;;;;;;;2.53;2.42;;;-1.80;99.90;;;;;;485222;245;27426;-65
2024/01/08 03:11:47;;;;;;;2.25;2.10;;;-1.80;99.90;;;;;;485070;245;27398;-65
2024/01/08 03:13:49;;;;;;;2.42;2.33;;;-1.80;99.90;;;;;;485181;245;27415;-65
2024/01/08 03:15:50;;;;;;;2.95;2.75;;;-1.80;99.90;;;;;;485204;245;27403;-65
2024/01/08 03:17:51;;;;;;;2.80;2.60;;;-1.70;99.90;;;;;;485213;245;27506;-65
2024/01/08 03:19:52;;;;;;;4.78;3.85;;;-1.80;99.90;;;;;;485210;245;27418;-65
2024/01/08 03:21:54;;;;;;;4.00;3.45;;;-1.80;99.90;;;;;;485197;245;27897;-65
2024/01/08 03:23:55;;;;;;;2.83;2.45;;;-1.80;99.90;;;;;;485162;241;28005;-65
2024/01/08 03:25:56;;;;;;;2.78;2.58;;;-1.80;99.90;;;;;;485215;245;27875;-65
2024/01/08 03:27:57;;;;;;;2.60;2.40;;;-1.80;99.90;;;;;;485217;245;27500;-66
2024/01/08 03:29:59;;;;;;;2.87;2.42;;;-1.80;99.90;;;;;;485208;245;27414;-65
2024/01/08 03:32:00;;;;;;;2.42;2.30;;;-1.80;99.90;;;;;;485206;245;27426;-65
2024/01/08 03:34:01;;;;;;;2.72;2.53;;;-1.80;99.90;;;;;;485181;245;27410;-65
2024/01/08 03:36:02;;;;;;;4.03;2.60;;;-1.80;99.90;;;;;;485217;245;27467;-65
2024/01/08 03:38:04;;;;;;;3.67;2.83;;;-1.80;99.90;;;;;;485203;245;27501;-65
2024/01/08 03:40:06;;;;;;;2.33;2.22;;;-1.80;99.90;;;;;;485217;245;27395;-65
2024/01/08 03:42:06;;;;;;;3.10;2.90;;;-1.80;99.90;;;;;;485170;245;27918;-65
2024/01/08 03:44:08;;;;;;;5.15;2.42;;;-1.90;99.90;;;;;;485170;245;27969;-65
2024/01/08 03:46:09;;;;;;;2.70;2.50;;;-1.80;99.90;;;;;;485203;245;27874;-65
2024/01/08 03:48:10;;;;;;;2.55;2.45;;;-1.80;99.90;;;;;;485189;245;27406;-65
2024/01/08 03:50:11;;;;;;;3.28;2.92;;;-1.80;99.90;;;;;;485216;245;27494;-65
2024/01/08 03:52:12;;;;;;;2.40;2.30;;;-1.80;99.90;;;;;;485151;245;27404;-65
2024/01/08 03:54:14;;;;;;;2.85;2.58;;;-1.80;99.90;;;;;;485187;245;27422;-66
2024/01/08 03:56:15;;;;;;;2.67;2.47;;;-1.70;99.90;;;;;;485220;245;27488;-65
2024/01/08 03:58:16;;;;;;;3.20;2.87;;;-1.80;99.90;;;;;;485206;245;27418;-65
2024/01/08 04:00:17;;;;;;;2.97;2.70;;;-1.80;99.90;;;;;;485215;245;27507;-65
2024/01/08 04:02:19;;;;;;;3.20;2.90;;;-1.80;99.90;;;;;;485201;245;27958;-65
2024/01/08 04:04:21;;;;;;;2.60;2.50;;;-1.80;99.90;;;;;;485171;245;27874;-65
2024/01/08 04:06:21;;;;;;;2.87;2.67;;;-1.80;99.90;;;;;;485184;245;29099;-65
2024/01/08 04:08:23;;;;;;;2.30;2.20;;;-1.80;99.90;;;;;;485183;245;27415;-65
2024/01/08 04:10:24;;;;;;;3.70;2.45;;;-1.80;99.90;;;;;;485203;245;27526;-67
2024/01/08 04:12:25;;;;;;;3.55;2.25;;;-1.80;99.90;;;;;;485186;245;27489;-65
2024/01/08 04:14:26;;;;;;;2.15;2.00;;;-1.80;99.90;;;;;;485175;245;27411;-65
2024/01/08 04:16:28;;;;;;;2.65;2.55;;;-1.80;99.90;;;;;;485192;245;27485;-65
2024/01/08 04:18:29;;;;;;;2.95;2.67;;;-1.90;99.90;;;;;;485205;245;27500;-65
2024/01/08 04:20:30;;;;;;;2.78;2.58;;;-1.80;99.90;;;;;;485203;245;27426;-66
2024/01/08 04:22:31;;;;;;;2.80;2.58;;;-1.80;99.90;;;;;;485189;245;27864;-65
2024/01/08 04:24:33;;;;;;;2.75;2.40;;;-1.90;99.90;;;;;;481391;245;27963;-66
2024/01/08 04:26:34;;;;;;;2.83;2.62;;;-1.90;99.90;;;;;;478441;248;28981;-65
2024/01/08 04:28:35;;;;;;;3.08;2.87;;;-1.80;99.90;;;;;;478430;248;27479;-65
2024/01/08 04:30:36;;;;;;;3.47;3.17;;;-1.80;99.90;;;;;;478406;248;27418;-65
2024/01/08 04:32:38;;;;;;;2.55;2.35;;;-1.80;99.90;;;;;;478424;248;27423;-65
2024/01/08 04:34:39;;;;;;;3.28;2.97;;;-1.80;99.90;;;;;;478412;248;27443;-65
2024/01/08 04:36:41;;;;;;;2.75;2.65;;;-1.80;99.90;;;;;;478455;248;28017;-65
2024/01/08 04:38:44;;;;;;;2.60;2.40;;;-1.80;99.90;;;;;;478396;248;27422;-65
2024/01/08 04:40:43;;;;;;;2.55;2.35;;;-1.80;99.90;;;;;;478299;248;27418;-65
2024/01/08 04:42:44;;;;;;;2.65;2.45;;;-1.80;99.90;;;;;;478444;248;27966;-65
2024/01/08 04:44:45;;;;;;;4.90;2.50;;;-1.80;99.90;;;;;;478319;248;27889;-65
2024/01/08 04:46:46;;;;;;;2.70;2.50;;;-1.80;99.90;;;;;;478442;248;29073;-65
2024/01/08 04:48:48;;;;;;;2.90;2.70;;;-1.80;99.90;;;;;;478443;248;27499;-65
2024/01/08 04:50:49;;;;;;;3.55;3.25;;;-1.80;99.90;;;;;;478440;248;27422;-66
2024/01/08 04:52:50;;;;;;;3.10;2.28;;;-1.80;99.90;;;;;;478430;248;27386;-65
2024/01/08 04:54:51;;;;;;;2.70;2.50;;;-1.80;99.90;;;;;;478408;248;27433;-65
2024/01/08 04:56:53;;;;;;;3.05;2.85;;;-1.80;99.90;;;;;;478442;248;27414;-66
2024/01/08 04:58:54;;;;;;;2.60;2.40;;;-1.90;99.90;;;;;;478348;248;27431;-65
2024/01/08 05:00:55;;;;;;;3.20;2.90;;;-1.90;99.90;;;;;;478342;248;27410;-65
2024/01/08 05:02:56;;;;;;;2.60;2.40;;;-1.90;99.90;;;;;;478438;248;27957;-65
2024/01/08 05:04:58;;;;;;;2.87;2.60;;;-1.90;99.90;;;;;;478413;248;27893;-65
2024/01/08 05:06:59;;;;;;;2.67;2.47;;;-1.90;99.90;;;;;;478439;248;28963;-65
2024/01/08 05:09:02;;;;;;;3.12;2.67;;;-1.90;99.90;;;;;;478430;248;27399;-65
2024/01/08 05:11:01;;;;;;;3.05;2.85;;;-1.90;99.90;;;;;;478375;248;27538;-65
2024/01/08 05:13:03;;;;;;;4.40;2.80;;;-1.80;99.90;;;;;;478428;248;27411;-65
2024/01/08 05:15:04;;;;;;;2.70;2.35;;;-1.90;99.90;;;;;;478415;248;27426;-65
2024/01/08 05:17:05;;;;;;;2.90;2.70;;;-1.90;99.90;;;;;;478435;248;27423;-65
2024/01/08 05:19:06;;;;;;;2.95;2.75;;;-1.90;99.90;;;;;;478438;248;27422;-65
2024/01/08 05:21:08;;;;;;;3.37;3.08;;;-1.90;99.90;;;;;;478409;248;27510;-65
2024/01/08 05:23:09;;;;;;;3.00;2.70;;;-1.90;99.90;;;;;;478438;248;27874;-66
2024/01/08 05:25:10;;;;;;;3.78;2.90;;;-1.90;99.90;;;;;;481131;245;27882;-65
2024/01/08 05:27:11;;;;;;;2.83;2.62;;;-1.90;99.90;;;;;;485201;245;29067;-65
2024/01/08 05:29:13;;;;;;;3.03;2.60;;;-1.90;99.90;;;;;;485194;245;27390;-65
2024/01/08 05:31:14;;;;;;;2.47;2.30;;;-1.90;99.90;;;;;;485200;245;27420;-65
2024/01/08 05:33:15;;;;;;;2.78;2.58;;;-1.90;99.90;;;;;;485194;245;27426;-65
2024/01/08 05:35:17;;;;;;;2.80;2.60;;;-2.00;99.90;;;;;;485176;245;27494;-65
2024/01/08 05:37:18;;;;;;;2.55;2.45;;;-2.00;99.90;;;;;;485184;245;27422;-65
2024/01/08 05:39:19;;;;;;;2.22;2.12;;;-1.90;99.90;;;;;;485213;245;27406;-65
2024/01/08 05:41:20;;;;;;;3.03;2.83;;;-1.90;99.90;;;;;;485194;245;27414;-65
2024/01/08 05:43:22;;;;;;;3.03;2.72;;;-1.90;99.90;;;;;;485203;245;27887;-65
2024/01/08 05:45:23;;;;;;;2.78;2.53;;;-1.90;99.90;;;;;;485140;245;27971;-65
2024/01/08 05:47:24;;;;;;;2.97;2.78;;;-1.90;99.90;;;;;;485174;245;28976;-65
2024/01/08 05:49:25;;;;;;;2.75;2.55;;;-1.90;99.90;;;;;;485194;245;27498;-66
2024/01/08 05:51:26;;;;;;;2.80;2.60;;;-1.90;99.90;;;;;;485192;245;27502;-65
2024/01/08 05:53:28;;;;;;;2.72;2.53;;;-1.90;99.90;;;;;;485067;245;27404;-65
2024/01/08 05:55:29;;;;;;;2.70;2.40;;;-1.90;99.90;;;;;;485178;245;27418;-65
2024/01/08 05:57:30;;;;;;;3.40;2.85;;;-2.00;99.90;;;;;;485195;245;27403;-65
2024/01/08 05:59:31;;;;;;;2.80;2.60;;;-2.00;99.90;;;;;;485188;245;27418;-65
2024/01/08 06:01:33;;;;;;;2.40;2.30;;;-1.90;99.90;;;;;;485188;242;27411;-65
2024/01/08 06:03:34;;;;;;;3.12;2.83;;;-2.00;99.90;;;;;;485192;245;27891;-65
2024/01/08 06:05:35;;;;;;;3.75;3.22;;;-2.00;99.90;;;;;;485157;245;27976;-65
2024/01/08 06:07:36;;;;;;;3.10;2.90;;;-2.00;99.90;;;;;;485178;245;28981;-65
2024/01/08 06:09:38;;;;;;;3.25;3.05;;;-2.00;99.90;;;;;;485198;245;27414;-66
2024/01/08 06:11:39;;;;;;;3.03;2.83;;;-2.00;99.90;;;;;;485185;245;27414;-65
2024/01/08 06:13:40;;;;;;;2.75;2.55;;;-2.00;99.90;;;;;;485181;245;27498;-64
2024/01/08 06:15:42;;;;;;;3.22;2.85;;;-1.90;99.90;;;;;;485154;245;27434;-64
2024/01/08 06:17:44;;;;;;;3.17;2.95;;;-1.90;99.90;;;;;;485204;245;27404;-65
2024/01/08 06:19:44;;;;;;;2.78;2.50;;;-2.00;99.90;;;;;;485136;245;27529;-65
2024/01/08 06:21:45;;;;;;;3.00;2.80;;;-2.00;99.90;;;;;;485177;245;27478;-64
2024/01/08 06:23:47;;;;;;;3.50;3.20;;;-2.00;99.90;;;;;;485180;245;28014;-65
2024/01/08 06:25:48;;;;;;;3.28;2.85;;;-2.00;99.90;;;;;;485170;245;28000;-66
2024/01/08 06:27:49;;;;;;;3.20;3.00;;;-2.00;99.90;;;;;;485189;245;29083;-65
2024/01/08 06:29:50;;;;;;;3.10;2.90;;;-2.00;99.90;;;;;;485194;245;27462;-65
2024/01/08 06:31:52;;;;;;;3.17;2.97;;;-2.00;99.90;;;;;;485193;245;27425;-65
2024/01/08 06:33:53;;;;;;;3.47;3.17;;;-2.00;99.90;;;;;;485167;245;27398;-65
2024/01/08 06:35:54;;;;;;;3.85;3.42;;;-2.00;99.90;;;;;;485207;245;27434;-65
2024/01/08 06:37:55;;;;;;;3.62;3.33;;;-2.00;99.90;;;;;;485220;245;27406;-65
2024/01/08 06:39:57;;;;;;;3.58;3.10;;;-2.00;99.90;;;;;;485186;245;27526;-65
2024/01/08 06:41:58;;;;;;;2.92;2.72;;;-2.00;99.90;;;;;;485219;245;27398;-64
2024/01/08 06:43:59;;;;;;;3.20;3.00;;;-2.00;99.90;;;;;;485184;245;27865;-65
2024/01/08 06:46:00;;;;;;;3.20;2.90;;;-2.00;99.90;;;;;;485226;245;27980;-65
2024/01/08 06:48:02;;;;;;;3.00;2.80;;;-2.10;99.90;;;;;;485220;245;29076;-64
2024/01/08 06:50:04;;;;;;;3.58;3.28;;;-2.00;99.90;;;;;;485214;245;27561;-65
2024/01/08 06:52:04;;;;;;;3.12;2.92;;;-2.00;99.90;;;;;;485121;245;27501;-66
2024/01/08 06:54:05;;;;;;;3.17;2.97;;;-2.00;99.90;;;;;;485043;245;27489;-65
2024/01/08 06:56:07;;;;;;;4.28;3.20;;;-2.00;99.90;;;;;;485075;245;27426;-65
2024/01/08 06:58:08;;;;;;;3.65;3.17;;;-2.00;99.90;;;;;;485213;245;27410;-65
2024/01/08 07:00:09;;;;;;;3.97;3.62;;;-2.00;99.90;;;;;;485203;245;27406;-64
2024/01/08 07:02:10;;;;;;;3.25;3.05;;;-2.00;99.90;;;;;;485218;245;27415;-66
2024/01/08 07:04:12;;;;;;;4.78;3.35;;;-2.00;99.90;;;;;;485187;245;27854;-65
2024/01/08 07:06:13;;;;;;;4.10;3.70;;;-2.00;99.90;;;;;;485211;245;27910;-64
2024/01/08 07:08:14;;;;;;;3.10;2.90;;;-2.00;99.90;;;;;;485236;245;27964;-64
2024/01/08 07:10:15;;;;;;;3.42;3.12;;;-2.00;99.90;;;;;;485197;245;27399;-65
2024/01/08 07:12:17;;;;;;;7.37;3.33;;;-2.00;99.90;;;;;;485206;245;27414;-65
2024/01/08 07:14:18;;;;;;;3.08;2.80;;;-2.00;99.90;;;;;;485128;245;27394;-65
2024/01/08 07:16:19;;;;;;;3.70;3.03;;;-2.00;99.90;;;;;;485212;245;27410;-66
2024/01/08 07:18:20;;;;;;;3.35;3.05;;;-2.00;99.90;;;;;;485214;245;27419;-65
2024/01/08 07:20:22;;;;;;;3.87;3.47;;;-2.10;99.90;;;;;;485207;245;27398;-65
2024/01/08 07:22:23;;;;;;;4.05;3.45;;;-2.10;99.90;;;;;;485210;245;27498;-64
2024/01/08 07:24:24;;;;;;;3.72;3.42;;;-2.10;99.90;;;;;;485180;245;28014;-65
2024/01/08 07:26:26;;;;;;;3.70;3.40;;;-2.10;99.90;;;;;;485194;245;27913;-65
2024/01/08 07:28:27;;;;;;;3.10;2.80;;;-2.10;99.90;;;;;;485219;245;27970;-66
2024/01/08 07:30:28;;;;;;;3.78;3.47;;;-2.10;99.90;;;;;;485220;245;27403;-65
2024/01/08 07:32:29;;;;;;;4.30;3.65;;;-2.00;99.90;;;;;;485221;245;27494;-65
2024/01/08 07:34:30;;;;;;;3.97;3.65;;;-2.00;99.90;;;;;;485168;245;27406;-65
2024/01/08 07:36:32;;;;;;;3.70;3.40;;;-2.00;99.90;;;;;;485214;245;27498;-65
2024/01/08 07:38:33;;;;;;;4.15;3.75;;;-2.00;99.90;;;;;;485196;245;27481;-66
2024/01/08 07:40:34;;;;;;;4.80;3.65;;;-2.00;99.90;;;;;;485216;245;27489;-65
2024/01/08 07:42:35;;;;;;;4.00;3.33;;;-2.00;99.90;;;;;;485207;245;27422;-65
2024/01/08 07:44:37;;;;;;;4.05;3.67;;;-2.00;99.90;;;;;;485174;245;27955;-64
2024/01/08 07:46:38;;;;;;;5.80;3.78;;;-2.10;99.90;;;;;;485221;245;27874;-65
2024/01/08 07:48:39;;;;;;;3.75;3.40;;;-2.00;99.90;;;;;;485212;245;27868;-65
2024/01/08 07:50:40;;;;;;;3.53;3.20;;;-2.10;99.90;;;;;;485209;245;27406;-65
2024/01/08 07:52:42;;;;;;;3.45;3.25;;;-2.10;99.90;;;;;;485198;245;27427;-65
2024/01/08 07:54:43;;;;;;;3.10;2.90;;;-2.00;99.90;;;;;;485158;245;27414;-66
2024/01/08 07:56:44;;;;;;;4.62;3.50;;;-2.00;99.90;;;;;;485200;245;27427;-65
2024/01/08 07:58:45;;;;;;;4.10;3.70;;;-2.00;99.90;;;;;;485217;245;27458;-65
2024/01/08 08:00:47;;;;;;;4.10;3.70;;;-2.00;99.90;;;;;;485202;245;27427;-65
2024/01/08 08:02:48;;;;;;;4.35;3.95;;;-1.90;99.90;;;;;;485196;245;27508;-65
2024/01/08 08:04:50;;;;;;;5.15;4.12;;;-1.90;99.90;;;;;;485172;245;27963;-66
2024/01/08 08:06:50;;;;;;;4.28;3.70;;;-2.00;99.90;;;;;;485064;245;27959;-65
2024/01/08 08:08:52;;;;;;;12.45;8.90;;;-2.10;99.90;;;;;;485212;245;27870;-65
2024/01/08 08:10:53;;;;;;;7.93;6.43;;;-2.00;99.90;;;;;;485222;245;28967;-65
2024/01/08 08:12:54;;;;;;;7.75;7.00;;;-2.00;99.90;;;;;;485213;245;27431;-65
2024/01/08 08:14:58;;;;;;;5.97;5.37;;;-1.90;99.90;;;;;;485180;245;27402;-66
2024/01/08 08:16:57;;;;;;;3.15;2.85;;;-2.00;99.90;;;;;;485055;245;27489;-65
2024/01/08 08:18:58;;;;;;;3.85;3.55;;;-2.00;99.90;;;;;;485216;245;27416;-65
2024/01/08 08:20:59;;;;;;;4.00;3.70;;;-2.10;99.90;;;;;;485202;245;27422;-66
2024/01/08 08:23:00;;;;;;;3.70;3.40;;;-2.00;99.90;;;;;;485224;245;27493;-65
2024/01/08 08:25:02;;;;;;;4.72;3.30;;;-2.10;99.90;;;;;;485187;245;27900;-65
2024/01/08 08:27:03;;;;;;;4.22;3.85;;;-2.00;99.90;;;;;;485206;245;28963;-65
2024/01/08 08:29:04;;;;;;;8.30;3.65;;;-2.00;99.90;;;;;;485189;245;27486;-65
2024/01/08 08:31:06;;;;;;;6.05;4.18;;;-2.00;99.90;;;;;;485065;245;27429;-66
2024/01/08 08:33:07;;;;;;;4.68;3.75;;;-2.00;99.90;;;;;;485219;245;27402;-65
2024/01/08 08:35:11;;;;;;;4.03;3.72;;;-2.00;99.90;;;;;;485177;245;27405;-66
2024/01/08 08:37:14;;;;;;;3.53;3.30;;;-2.00;99.90;;;;;;485212;245;27424;-65
2024/01/08 08:39:16;;;;;;;5.22;4.00;;;-1.90;99.90;;;;;;485120;245;27410;-65
2024/01/08 08:41:17;;;;;;;4.22;3.78;;;-1.90;99.90;;;;;;485193;245;28072;-66
2024/01/08 08:43:19;;;;;;;5.78;4.30;;;-1.90;99.90;;;;;;485199;245;29029;-65
2024/01/08 08:45:20;;;;;;;4.68;4.03;;;-1.90;99.90;;;;;;485127;245;27506;-65
2024/01/08 08:47:21;;;;;;;4.65;4.25;;;-1.90;99.90;;;;;;485189;245;27494;-65
2024/01/08 08:49:22;;;;;;;3.85;3.55;;;-1.90;99.90;;;;;;485197;245;27501;-65
2024/01/08 08:51:24;;;;;;;7.68;3.40;;;-1.90;99.90;;;;;;485195;245;27510;-66
2024/01/08 08:53:25;;;;;;;4.60;4.12;;;-1.90;99.90;;;;;;485200;245;27494;-65
2024/01/08 08:55:26;;;;;;;4.93;4.25;;;-1.90;99.90;;;;;;485153;245;27419;-65
2024/01/08 08:57:27;;;;;;;5.55;4.00;;;-1.90;99.90;;;;;;485200;245;27402;-65
2024/01/08 08:59:29;;;;;;;4.93;4.12;;;-1.90;99.90;;;;;;485199;245;27868;-65
2024/01/08 09:01:30;;;;;;;4.20;3.80;;;-1.80;99.90;;;;;;485205;245;27879;-65
2024/01/08 09:03:31;;;;;;;7.12;4.50;;;-1.70;99.90;;;;;;485200;245;27967;-64
2024/01/08 09:05:32;;;;;;;6.30;4.40;;;-1.70;99.90;;;;;;485170;245;27422;-66
2024/01/08 09:07:34;;;;;;;4.10;3.70;;;-1.70;99.90;;;;;;485196;245;27441;-65
2024/01/08 09:09:35;;;;;;;4.40;4.00;;;-1.70;99.90;;;;;;485208;245;27419;-65
2024/01/08 09:11:37;;;;;;;4.85;4.10;;;-1.80;99.90;;;;;;485200;245;27430;-66
2024/01/08 09:13:37;;;;;;;4.28;3.87;;;-1.80;99.90;;;;;;485181;245;27426;-65
2024/01/08 09:15:39;;;;;;;9.48;4.50;;;-1.70;99.90;;;;;;485165;245;27491;-65
2024/01/08 09:17:40;;;;;;;4.25;3.85;;;-1.80;99.90;;;;;;485196;245;27527;-66
2024/01/08 09:19:41;;;;;;;5.00;4.00;;;-1.70;99.90;;;;;;485069;245;27910;-65
2024/01/08 09:21:43;;;;;;;5.28;4.10;;;-1.80;99.90;;;;;;485192;245;27886;-65
2024/01/08 09:23:44;;;;;;;5.30;4.03;;;-1.70;99.90;;;;;;485151;245;27905;-65
2024/01/08 09:25:45;;;;;;;4.82;4.00;;;-1.70;99.90;;;;;;485181;245;27401;-65
2024/01/08 09:27:47;;;;;;;5.18;4.68;;;-1.70;99.90;;;;;;485204;245;27410;-66
2024/01/08 09:29:48;;;;;;;4.75;4.35;;;-1.60;99.90;;;;;;485199;245;27481;-65
2024/01/08 09:31:49;;;;;;;5.47;4.45;;;-1.60;99.90;;;;;;485176;245;27506;-65
2024/01/08 09:33:51;;;;;;;4.75;4.35;;;-1.70;99.90;;;;;;485156;245;27490;-65
2024/01/08 09:35:51;;;;;;;4.32;3.92;;;-1.70;99.90;;;;;;485175;245;27410;-65
2024/01/08 09:37:53;;;;;;;6.90;5.03;;;-1.80;99.90;;;;;;485208;245;27422;-65
2024/01/08 09:39:54;;;;;;;7.53;4.90;;;-1.80;99.90;;;;;;485195;245;27906;-65
2024/01/08 09:41:55;;;;;;;6.22;4.95;;;-1.80;99.90;;;;;;485198;245;27899;-65
2024/01/08 09:43:56;;;;;;;7.05;5.18;;;-1.90;99.90;;;;;;485019;245;29163;-66
2024/01/08 09:45:58;;;;;;;5.80;4.50;;;-1.90;99.90;;;;;;485194;245;27498;-65
2024/01/08 09:47:59;;;;;;;4.60;4.20;;;-2.00;99.90;;;;;;485199;245;27490;-65
2024/01/08 09:50:00;;;;;;;7.68;4.72;;;-2.00;99.90;;;;;;485200;245;27482;-65
2024/01/08 09:52:01;;;;;;;4.85;4.40;;;-2.10;99.90;;;;;;485201;245;27407;-65
2024/01/08 09:54:03;;;;;;;5.50;4.90;;;-2.10;99.90;;;;;;485183;245;27493;-66
2024/01/08 09:56:04;;;;;;;5.85;5.00;;;-2.10;99.90;;;;;;485182;245;27419;-65
2024/01/08 09:58:06;;;;;;;6.85;4.05;;;-2.00;99.90;;;;;;485189;245;27438;-65
2024/01/08 10:00:07;;;;;;;6.35;4.85;;;-2.00;99.90;;;;;;485101;245;27971;-65
2024/01/08 10:02:08;;;;;;;3.85;3.45;;;-2.00;99.90;;;;;;485166;245;27870;-65
2024/01/08 10:04:09;;;;;;;7.35;4.80;;;-2.10;99.90;;;;;;485150;245;29056;-65
2024/01/08 10:06:10;;;;;;;4.90;4.25;;;-2.10;99.90;;;;;;485150;245;27490;-65
2024/01/08 10:08:11;;;;;;;4.60;4.10;;;-2.10;99.90;;;;;;485191;245;27514;-66
2024/01/08 10:10:13;;;;;;;5.50;4.32;;;-2.10;99.90;;;;;;485187;245;27549;-64
2024/01/08 10:12:14;;;;;;;5.03;4.22;;;-2.10;99.90;;;;;;485179;245;27423;-64
2024/01/08 10:14:15;;;;;;;5.57;4.87;;;-2.20;99.90;;;;;;485169;245;27426;-65
2024/01/08 10:16:16;;;;;;;7.22;4.57;;;-2.20;99.90;;;;;;485215;245;27395;-65
2024/01/08 10:18:18;;;;;;;7.90;5.35;;;-2.20;99.90;;;;;;485219;245;27536;-65
2024/01/08 10:20:19;;;;;;;7.35;5.00;;;-2.10;99.90;;;;;;485224;245;27862;-66
2024/01/08 10:22:20;;;;;;;5.03;4.22;;;-2.20;99.90;;;;;;485219;245;27870;-65
2024/01/08 10:24:21;;;;;;;5.37;4.70;;;-2.20;99.90;;;;;;485196;245;27870;-65
2024/01/08 10:26:26;;;;;;;5.03;4.05;;;-2.10;99.90;;;;;;485226;242;27392;-65
2024/01/08 10:28:24;;;;;;;7.97;4.80;;;-2.10;99.90;;;;;;484995;245;27525;-64
2024/01/08 10:30:26;;;;;;;5.43;4.00;;;-2.10;99.90;;;;;;482635;245;27591;-66
2024/01/08 10:32:26;;;;;;;5.93;4.45;;;-2.20;99.90;;;;;;478438;248;27480;-64